createdAt,value
2023-01-02T00:00:02.466Z,57.20
2023-01-02T00:02:35.914Z,53.63
2023-01-02T00:05:10.240Z,50.90
2023-01-02T00:07:43.462Z,42.47
2023-01-02T00:10:17.027Z,36.65
2023-01-02T00:12:51.579Z,39.97
2023-01-02T00:15:26.674Z,39.60
2023-01-02T00:18:00.333Z,36.30
2023-01-02T00:20:34.529Z,43.00
2023-01-02T00:23:07.627Z,39.65
2023-01-02T00:25:41.013Z,43.35
2023-01-02T00:28:14.916Z,47.72
2023-01-02T00:30:49.788Z,36.95
2023-01-02T00:33:23.882Z,36.35
2023-01-02T00:35:57.104Z,42.60
2023-01-02T00:38:30.323Z,36.45
2023-01-02T00:41:03.597Z,34.63
2023-01-02T00:43:37.342Z,37.00
2023-01-02T00:46:12.525Z,34.97
2023-01-02T00:48:46.089Z,37.10
2023-01-02T00:51:19.335Z,37.17
2023-01-02T00:53:52.617Z,33.35
2023-01-02T00:56:25.855Z,38.35
2023-01-02T00:58:59.884Z,54.13
2023-01-02T01:01:34.860Z,54.22
2023-01-02T01:04:08.150Z,41.13
2023-01-02T01:06:41.442Z,46.60
2023-01-02T01:09:14.734Z,40.85
2023-01-02T01:11:48.326Z,47.20
2023-01-02T01:14:23.709Z,35.42
2023-01-02T01:16:58.950Z,35.08
2023-01-02T01:19:32.302Z,37.38
2023-01-02T01:22:05.503Z,30.77
2023-01-02T01:24:38.744Z,28.80
2023-01-02T01:27:11.970Z,31.95
2023-01-02T01:29:45.331Z,26.63
2023-01-02T01:32:20.552Z,28.58
2023-01-02T01:34:53.866Z,29.80
2023-01-02T01:37:27.176Z,38.00
2023-01-02T01:40:01.061Z,30.48
2023-01-02T01:42:35.045Z,28.88
2023-01-02T01:45:15.503Z,32.17
2023-01-02T01:47:54.304Z,24.70
2023-01-02T01:50:32.586Z,27.33
2023-01-02T01:53:11.335Z,30.40
2023-01-02T01:55:48.148Z,25.50
2023-01-02T01:58:25.937Z,29.08
2023-01-02T02:00:59.986Z,33.78
2023-01-02T02:03:37.086Z,27.42
2023-01-02T02:06:11.468Z,27.63
2023-01-02T02:08:49.148Z,24.30
2023-01-02T02:11:23.772Z,30.90
2023-01-02T02:14:00.429Z,23.70
2023-01-02T02:16:43.016Z,35.97
2023-01-02T02:19:47.769Z,25.85
2023-01-02T02:25:34.693Z,31.75
2023-01-02T02:28:39.055Z,34.75
2023-01-02T02:31:21.611Z,28.48
2023-01-02T02:34:00.125Z,27.08
2023-01-02T02:36:39.844Z,26.90
2023-01-02T02:39:22.121Z,27.83
2023-01-02T02:41:59.705Z,29.95
2023-01-02T02:44:41.806Z,32.97
2023-01-02T02:47:23.401Z,35.95
2023-01-02T02:50:03.763Z,33.90
2023-01-02T02:52:43.324Z,33.00
2023-01-02T02:55:22.258Z,35.70
2023-01-02T02:57:57.991Z,33.72
2023-01-02T03:00:31.330Z,37.53
2023-01-02T03:03:17.392Z,32.38
2023-01-02T03:06:07.151Z,41.53
2023-01-02T03:08:46.044Z,33.00
2023-01-02T03:11:19.825Z,32.22
2023-01-02T03:14:03.302Z,28.92
2023-01-02T03:16:40.895Z,36.63
2023-01-02T03:19:24.339Z,32.50
2023-01-02T03:22:02.444Z,30.48
2023-01-02T03:24:38.024Z,30.83
2023-01-02T03:27:15.996Z,31.00
2023-01-02T03:29:54.872Z,35.72
2023-01-02T03:32:32.115Z,34.80
2023-01-02T03:35:14.944Z,36.17
2023-01-02T03:37:55.435Z,39.65
2023-01-02T03:40:35.393Z,41.58
2023-01-02T03:43:12.513Z,37.75
2023-01-02T03:45:52.314Z,28.90
2023-01-02T03:48:32.664Z,28.27
2023-01-02T03:51:08.142Z,29.80
2023-01-02T03:53:41.949Z,35.75
2023-01-02T03:56:24.458Z,30.88
2023-01-02T03:59:02.673Z,28.27
2023-01-02T04:01:41.768Z,39.40
2023-01-02T04:04:19.911Z,36.80
2023-01-02T04:06:59.655Z,37.38
2023-01-02T04:09:35.245Z,34.72
2023-01-02T04:12:14.898Z,41.17
2023-01-02T04:14:52.569Z,35.22
2023-01-02T04:17:28.237Z,31.00
2023-01-02T04:20:06.633Z,34.88
2023-01-02T04:22:49.268Z,35.67
2023-01-02T04:25:27.354Z,35.35
2023-01-02T04:28:03.986Z,42.80
2023-01-02T04:30:42.638Z,42.70
2023-01-02T04:33:18.991Z,54.30
2023-01-02T04:35:52.655Z,52.50
2023-01-02T04:38:27.010Z,41.63
2023-01-02T04:41:00.785Z,41.15
2023-01-02T04:43:34.258Z,46.75
2023-01-02T04:46:07.647Z,51.53
2023-01-02T04:51:14.922Z,44.97
2023-01-02T04:53:50.083Z,48.03
2023-01-02T04:56:23.414Z,49.17
2023-01-02T04:58:56.669Z,68.65
2023-01-02T05:01:30.025Z,57.50
2023-01-02T05:04:03.395Z,64.38
2023-01-02T05:06:36.981Z,87.60
2023-01-02T05:09:11.983Z,69.07
2023-01-02T05:11:46.075Z,58.42
2023-01-02T05:14:19.688Z,56.45
2023-01-02T05:16:53.295Z,64.20
2023-01-02T05:19:26.593Z,52.35
2023-01-02T05:22:17.628Z,61.75
2023-01-02T05:24:52.310Z,63.03
2023-01-02T05:27:25.761Z,61.30
2023-01-02T05:29:59.033Z,62.17
2023-01-02T05:32:32.521Z,46.60
2023-01-02T05:37:39.948Z,50.47
2023-01-02T05:40:14.879Z,51.15
2023-01-02T05:42:48.144Z,44.55
2023-01-02T05:45:21.409Z,46.45
2023-01-02T05:47:54.675Z,57.03
2023-01-02T05:50:28.190Z,46.70
2023-01-02T05:53:01.727Z,49.45
2023-01-02T05:55:37.122Z,49.00
2023-01-02T05:58:10.333Z,51.42
2023-01-02T06:00:43.473Z,53.92
2023-01-02T06:03:16.791Z,65.95
2023-01-02T06:05:50.049Z,51.85
2023-01-02T06:10:58.510Z,53.15
2023-01-02T06:13:33.391Z,61.40
2023-01-02T06:16:08.800Z,59.25
2023-01-02T06:18:42.133Z,51.20
2023-01-02T06:21:17.127Z,64.03
2023-01-02T06:23:55.604Z,72.70
2023-01-02T06:26:34.886Z,69.55
2023-01-02T06:29:08.841Z,73.03
2023-01-02T06:31:44.872Z,62.55
2023-01-02T06:34:22.879Z,64.07
2023-01-02T06:39:29.934Z,72.72
2023-01-02T06:42:04.580Z,79.57
2023-01-02T06:44:37.691Z,73.03
2023-01-02T06:47:10.963Z,70.68
2023-01-02T06:49:44.531Z,72.25
2023-01-02T06:52:18.138Z,87.05
2023-01-02T06:54:51.840Z,97.88
2023-01-02T06:57:26.478Z,105.35
2023-01-02T06:59:59.766Z,101.78
2023-01-02T07:02:33.184Z,107.00
2023-01-02T07:05:07.306Z,129.90
2023-01-02T07:07:40.974Z,139.23
2023-01-02T07:12:49.927Z,127.32
2023-01-02T07:15:23.634Z,149.10
2023-01-02T07:17:57.213Z,143.77
2023-01-02T07:20:30.473Z,138.20
2023-01-02T07:23:03.659Z,137.68
2023-01-02T07:28:18.890Z,119.57
2023-01-02T07:30:52.541Z,125.25
2023-01-02T07:35:59.693Z,104.55
2023-01-02T07:38:33.496Z,104.15
2023-01-02T07:41:15.508Z,108.72
2023-01-02T07:43:50.909Z,106.40
2023-01-02T07:46:24.432Z,116.18
2023-01-02T07:48:57.640Z,97.20
2023-01-02T07:51:32.294Z,102.63
2023-01-02T07:54:06.015Z,94.15
2023-01-02T07:56:39.406Z,105.50
2023-01-02T07:59:14.100Z,102.75
2023-01-02T08:01:48.041Z,108.03
2023-01-02T08:04:21.853Z,110.13
2023-01-02T08:09:28.636Z,116.82
2023-01-02T08:12:02.944Z,103.80
2023-01-02T08:14:38.474Z,107.93
2023-01-02T08:17:12.143Z,101.93
2023-01-02T08:19:45.476Z,96.13
2023-01-02T08:22:19.010Z,100.25
2023-01-02T08:24:52.498Z,96.50
2023-01-02T08:27:26.226Z,102.68
2023-01-02T08:30:01.090Z,91.05
2023-01-02T08:32:37.110Z,82.28
2023-01-02T08:35:10.996Z,92.68
2023-01-02T08:37:50.084Z,91.70
2023-01-02T08:40:24.003Z,88.03
2023-01-02T08:42:57.391Z,81.70
2023-01-02T08:45:32.309Z,91.88
2023-01-02T08:48:21.535Z,93.68
2023-01-02T08:50:55.200Z,83.80
2023-01-02T08:53:28.521Z,80.22
2023-01-02T08:56:23.009Z,84.22
2023-01-02T08:58:58.312Z,81.63
2023-01-02T09:01:33.877Z,75.07
2023-01-02T09:04:12.536Z,74.57
2023-01-02T09:06:46.833Z,71.60
2023-01-02T09:09:20.298Z,79.28
2023-01-02T09:11:54.452Z,83.18
2023-01-02T09:14:28.222Z,81.82
2023-01-02T09:17:03.306Z,79.30
2023-01-02T09:19:37.114Z,88.25
2023-01-02T09:22:10.643Z,93.15
2023-01-02T09:24:44.080Z,97.65
2023-01-02T09:27:17.680Z,87.72
2023-01-02T09:29:51.075Z,81.78
2023-01-02T09:32:25.646Z,78.43
2023-01-02T09:34:59.703Z,83.22
2023-01-02T09:37:32.891Z,70.00
2023-01-02T09:40:07.102Z,73.18
2023-01-02T09:42:40.602Z,42.08
2023-01-02T09:45:15.620Z,41.40
2023-01-02T09:47:51.948Z,36.03
2023-01-02T09:50:28.030Z,38.53
2023-01-02T09:53:02.038Z,43.53
2023-01-02T09:58:20.658Z,38.78
2023-01-02T10:00:54.340Z,32.22
2023-01-02T10:03:36.293Z,32.47
2023-01-02T10:06:16.519Z,27.23
2023-01-02T10:09:03.223Z,25.55
2023-01-02T10:11:44.553Z,35.13
2023-01-02T10:14:31.439Z,16.85
2023-01-02T10:17:14.000Z,30.52
2023-01-02T10:19:55.018Z,24.58
2023-01-02T10:22:36.656Z,20.67
2023-01-02T10:25:15.897Z,20.27
2023-01-02T10:27:53.189Z,19.90
2023-01-02T10:30:28.927Z,19.17
2023-01-02T10:33:05.558Z,20.35
2023-01-02T10:35:44.364Z,21.35
2023-01-02T10:38:20.885Z,25.58
2023-01-02T10:40:54.555Z,19.35
2023-01-02T10:43:29.490Z,19.10
2023-01-02T10:46:04.682Z,23.30
2023-01-02T10:48:39.825Z,20.73
2023-01-02T10:51:17.352Z,19.27
2023-01-02T10:54:01.817Z,21.83
2023-01-02T10:59:21.971Z,27.27
2023-01-02T11:01:57.332Z,23.30
2023-01-02T11:04:31.986Z,27.33
2023-01-02T11:07:06.676Z,49.75
2023-01-02T11:09:40.378Z,32.65
2023-01-02T11:12:15.324Z,43.45
2023-01-02T11:14:50.132Z,30.77
2023-01-02T11:17:25.962Z,27.52
2023-01-02T11:19:59.229Z,24.45
2023-01-02T11:22:37.404Z,25.77
2023-01-02T11:25:20.240Z,21.33
2023-01-02T11:27:58.686Z,27.67
2023-01-02T11:30:37.551Z,24.67
2023-01-02T11:33:20.821Z,19.95
2023-01-02T11:35:56.498Z,22.17
2023-01-02T11:38:45.670Z,20.15
2023-01-02T11:41:48.520Z,18.30
2023-01-02T11:44:26.472Z,19.88
2023-01-02T11:47:01.463Z,22.90
2023-01-02T11:49:39.383Z,19.38
2023-01-02T11:52:17.510Z,22.38
2023-01-02T11:54:57.381Z,19.83
2023-01-02T11:57:39.638Z,21.00
2023-01-02T12:00:15.871Z,27.05
2023-01-02T12:02:52.084Z,19.73
2023-01-02T12:05:34.054Z,20.65
2023-01-02T12:08:17.558Z,17.73
2023-01-02T12:10:59.388Z,17.17
2023-01-02T12:13:51.232Z,18.15
2023-01-02T12:16:35.009Z,17.00
2023-01-02T12:19:42.425Z,20.75
2023-01-02T12:22:28.566Z,20.38
2023-01-02T12:25:24.694Z,18.15
2023-01-02T12:28:06.460Z,17.55
2023-01-02T12:30:49.731Z,15.77
2023-01-02T12:33:40.192Z,19.40
2023-01-02T12:36:34.162Z,14.80
2023-01-02T12:39:26.599Z,16.98
2023-01-02T12:42:13.319Z,23.52
2023-01-02T12:44:52.151Z,17.30
2023-01-02T12:47:36.241Z,15.65
2023-01-02T12:50:28.942Z,13.60
2023-01-02T12:53:15.201Z,13.63
2023-01-02T12:55:59.406Z,15.00
2023-01-02T12:58:47.965Z,15.90
2023-01-02T13:01:31.393Z,12.77
2023-01-02T13:04:15.265Z,15.43
2023-01-02T13:06:53.413Z,16.20
2023-01-02T13:09:33.498Z,13.73
2023-01-02T13:12:12.082Z,14.75
2023-01-02T13:14:51.607Z,16.13
2023-01-02T13:17:37.846Z,15.27
2023-01-02T13:20:22.805Z,20.67
2023-01-02T13:23:05.852Z,15.45
2023-01-02T13:25:45.955Z,15.18
2023-01-02T13:28:20.200Z,14.88
2023-01-02T13:31:35.307Z,15.73
2023-01-02T13:33:57.488Z,12.52
2023-01-02T13:36:39.376Z,12.30
2023-01-02T13:39:19.845Z,14.98
2023-01-02T13:42:14.653Z,13.60
2023-01-02T13:44:52.255Z,17.48
2023-01-02T13:47:34.898Z,13.35
2023-01-02T13:50:19.712Z,15.10
2023-01-02T13:55:35.822Z,15.40
2023-01-02T13:58:40.541Z,15.95
2023-01-02T14:01:43.694Z,14.38
2023-01-02T14:04:46.969Z,15.48
2023-01-02T14:07:44.997Z,15.00
2023-01-02T14:10:35.488Z,16.23
2023-01-02T14:13:18.944Z,12.55
2023-01-02T14:16:39.724Z,16.92
2023-01-02T14:19:23.155Z,17.80
2023-01-02T14:22:06.882Z,13.68
2023-01-02T14:24:44.333Z,21.88
2023-01-02T14:27:23.836Z,19.08
2023-01-02T14:30:01.029Z,15.73
2023-01-02T14:32:39.306Z,15.88
2023-01-02T14:35:26.167Z,14.68
2023-01-02T14:38:10.883Z,20.10
2023-01-02T14:40:46.812Z,18.90
2023-01-02T14:43:32.351Z,12.85
2023-01-02T14:46:16.364Z,17.55
2023-01-02T14:51:34.057Z,18.90
2023-01-02T14:54:15.668Z,21.58
2023-01-02T14:56:55.621Z,19.88
2023-01-02T14:59:31.567Z,18.77
2023-01-02T15:02:10.254Z,28.48
2023-01-02T15:04:47.196Z,42.55
2023-01-02T15:07:26.738Z,31.10
2023-01-02T15:10:04.156Z,46.38
2023-01-02T15:13:03.140Z,56.17
2023-01-02T15:15:40.981Z,54.88
2023-01-02T15:18:22.725Z,54.33
2023-01-02T15:20:58.429Z,42.65
2023-01-02T15:23:31.656Z,38.65
2023-01-02T15:26:31.363Z,39.50
2023-01-02T15:29:19.929Z,55.38
2023-01-02T15:31:55.215Z,61.40
2023-01-02T15:34:30.864Z,64.07
2023-01-02T15:37:07.100Z,52.95
2023-01-02T15:39:43.805Z,51.63
2023-01-02T15:42:38.523Z,52.75
2023-01-02T15:45:16.331Z,52.58
2023-01-02T15:47:52.582Z,50.53
2023-01-02T15:50:28.244Z,58.45
2023-01-02T15:53:05.182Z,54.85
2023-01-02T15:55:40.391Z,62.00
2023-01-02T15:58:21.871Z,104.45
2023-01-02T16:01:15.387Z,115.65
2023-01-02T16:04:01.588Z,125.63
2023-01-02T16:06:41.553Z,123.22
2023-01-02T16:09:22.628Z,123.25
2023-01-02T16:11:58.750Z,125.18
2023-01-02T16:14:37.644Z,127.53
2023-01-02T16:17:22.816Z,123.90
2023-01-02T16:19:59.970Z,125.82
2023-01-02T16:22:44.028Z,135.13
2023-01-02T16:25:20.043Z,128.35
2023-01-02T16:27:57.304Z,134.20
2023-01-02T16:30:38.135Z,130.32
2023-01-02T16:33:24.232Z,123.63
2023-01-02T16:36:07.409Z,124.25
2023-01-02T16:38:49.416Z,133.32
2023-01-02T16:42:19.641Z,152.95
2023-01-02T16:44:56.263Z,167.57
2023-01-02T16:47:36.296Z,168.93
2023-01-02T16:50:18.306Z,179.10
2023-01-02T16:52:53.288Z,170.05
2023-01-02T16:55:27.163Z,160.93
2023-01-02T16:58:01.378Z,180.43
2023-01-02T17:00:39.848Z,169.73
2023-01-02T17:03:19.710Z,180.45
2023-01-02T17:06:01.239Z,180.02
2023-01-02T17:08:36.391Z,176.23
2023-01-02T17:11:09.941Z,178.77
2023-01-02T17:13:43.841Z,174.48
2023-01-02T17:16:18.450Z,191.52
2023-01-02T17:18:52.096Z,183.88
2023-01-02T17:21:32.573Z,185.57
2023-01-02T17:24:06.693Z,172.60
2023-01-02T17:26:40.369Z,166.35
2023-01-02T17:29:14.053Z,160.13
2023-01-02T17:31:47.727Z,157.52
2023-01-02T17:34:21.290Z,155.70
2023-01-02T17:36:57.104Z,152.70
2023-01-02T17:39:30.590Z,154.00
2023-01-02T17:42:03.919Z,153.52
2023-01-02T17:44:38.895Z,141.77
2023-01-02T17:50:07.203Z,143.27
2023-01-02T17:52:41.712Z,161.77
2023-01-02T17:55:15.367Z,141.57
2023-01-02T17:57:49.080Z,140.52
2023-01-02T18:00:23.800Z,141.10
2023-01-02T18:02:57.545Z,133.40
2023-01-02T18:05:32.007Z,144.15
2023-01-02T18:08:07.147Z,147.02
2023-01-02T18:10:40.964Z,152.88
2023-01-02T18:15:49.042Z,136.45
2023-01-02T18:20:58.621Z,122.78
2023-01-02T18:23:33.444Z,120.43
2023-01-02T18:26:12.070Z,128.23
2023-01-02T18:28:50.947Z,128.57
2023-01-02T18:31:25.560Z,132.48
2023-01-02T18:34:45.757Z,134.57
2023-01-02T18:37:19.361Z,125.40
2023-01-02T18:39:55.570Z,121.65
2023-01-02T18:42:34.667Z,129.02
2023-01-02T18:45:17.034Z,131.93
2023-01-02T18:47:56.844Z,128.32
2023-01-02T18:50:34.264Z,142.45
2023-01-02T18:53:16.868Z,150.20
2023-01-02T18:55:57.313Z,141.25
2023-01-02T18:58:40.949Z,136.10
2023-01-02T19:01:23.824Z,124.07
2023-01-02T19:04:24.461Z,133.73
2023-01-02T19:07:16.860Z,138.65
2023-01-02T19:09:50.361Z,118.13
2023-01-02T19:12:45.871Z,142.48
2023-01-02T19:15:43.861Z,123.95
2023-01-02T19:18:27.401Z,131.82
2023-01-02T19:21:12.051Z,120.53
2023-01-02T19:23:50.163Z,115.75
2023-01-02T19:26:27.833Z,117.10
2023-01-02T19:29:08.676Z,89.45
2023-01-02T19:31:44.851Z,103.47
2023-01-02T19:34:27.908Z,94.85
2023-01-02T19:37:20.210Z,81.97
2023-01-02T19:39:54.872Z,93.75
2023-01-02T19:42:30.967Z,110.15
2023-01-02T19:45:08.681Z,95.50
2023-01-02T19:47:42.171Z,97.03
2023-01-02T19:50:17.500Z,90.68
2023-01-02T19:52:50.877Z,95.85
2023-01-02T19:55:25.277Z,95.78
2023-01-02T19:57:59.451Z,100.68
2023-01-02T20:00:34.499Z,111.40
2023-01-02T20:03:09.308Z,99.60
2023-01-02T20:05:42.663Z,105.60
2023-01-02T20:08:16.103Z,101.75
2023-01-02T20:10:49.651Z,93.72
2023-01-02T20:13:24.037Z,88.70
2023-01-02T20:15:59.790Z,91.32
2023-01-02T20:18:33.276Z,90.90
2023-01-02T20:21:07.095Z,90.47
2023-01-02T20:23:40.365Z,85.13
2023-01-02T20:26:13.482Z,79.40
2023-01-02T20:28:47.105Z,77.43
2023-01-02T20:31:22.118Z,77.63
2023-01-02T20:33:55.855Z,81.95
2023-01-02T20:36:29.617Z,91.00
2023-01-02T20:39:02.897Z,96.10
2023-01-02T20:41:38.594Z,85.18
2023-01-02T20:44:14.208Z,91.55
2023-01-02T20:46:49.182Z,77.28
2023-01-02T20:49:25.037Z,81.30
2023-01-02T20:51:58.484Z,72.63
2023-01-02T20:54:31.875Z,82.72
2023-01-02T20:57:05.411Z,79.30
2023-01-02T20:59:38.887Z,80.47
2023-01-02T21:04:47.505Z,96.25
2023-01-02T21:07:20.762Z,80.95
2023-01-02T21:09:57.517Z,79.57
2023-01-02T21:12:48.744Z,82.20
2023-01-02T21:15:39.836Z,79.00
2023-01-02T21:18:17.347Z,87.22
2023-01-02T21:20:53.123Z,82.22
2023-01-02T21:23:29.114Z,87.60
2023-01-02T21:26:03.059Z,75.18
2023-01-02T21:28:37.120Z,74.28
2023-01-02T21:31:11.400Z,66.65
2023-01-02T21:33:46.490Z,75.90
2023-01-02T21:36:20.016Z,79.55
2023-01-02T21:38:53.395Z,79.65
2023-01-02T21:41:43.671Z,82.15
2023-01-02T21:44:17.098Z,84.10
2023-01-02T21:46:50.502Z,94.40
2023-01-02T21:49:25.146Z,82.32
2023-01-02T21:51:58.443Z,92.60
2023-01-02T21:54:32.155Z,84.40
2023-01-02T21:57:06.035Z,85.65
2023-01-02T21:59:39.406Z,76.00
2023-01-02T22:02:12.593Z,78.00
2023-01-02T22:07:31.807Z,75.43
2023-01-02T22:10:07.703Z,81.78
2023-01-02T22:12:42.092Z,78.68
2023-01-02T22:15:16.038Z,70.97
2023-01-02T22:17:49.586Z,79.68
2023-01-02T22:20:24.407Z,77.30
2023-01-02T22:22:58.004Z,63.85
2023-01-02T22:25:32.304Z,72.57
2023-01-02T22:28:06.056Z,68.68
2023-01-02T22:30:39.290Z,65.38
2023-01-02T22:33:12.637Z,64.07
2023-01-02T22:35:48.392Z,72.35
2023-01-02T22:38:21.652Z,71.80
2023-01-02T22:40:56.037Z,57.30
2023-01-02T22:43:35.638Z,61.22
2023-01-02T22:46:17.706Z,55.95
2023-01-02T22:48:52.151Z,60.80
2023-01-02T22:51:57.793Z,59.83
2023-01-02T22:54:23.879Z,51.08
2023-01-02T22:56:57.390Z,56.58
2023-01-02T22:59:30.741Z,56.58
2023-01-02T23:02:04.063Z,62.78
2023-01-02T23:04:37.397Z,54.17
2023-01-02T23:07:25.134Z,57.70
2023-01-02T23:09:58.967Z,58.30
2023-01-02T23:12:32.506Z,54.45
2023-01-02T23:15:07.377Z,44.63
2023-01-02T23:17:58.380Z,49.58
2023-01-02T23:20:31.738Z,45.88
2023-01-02T23:23:06.538Z,43.65
2023-01-02T23:25:43.110Z,45.75
2023-01-02T23:28:39.279Z,43.40
2023-01-02T23:31:11.675Z,46.95
2023-01-02T23:33:45.014Z,50.35
2023-01-02T23:36:18.519Z,56.75
2023-01-02T23:38:53.609Z,53.92
2023-01-02T23:41:27.509Z,51.90
2023-01-02T23:44:01.848Z,51.22
2023-01-02T23:46:35.447Z,57.38
2023-01-02T23:49:09.310Z,51.33
2023-01-02T23:51:42.883Z,50.90
2023-01-02T23:56:52.163Z,49.90
2023-01-02T23:59:26.262Z,52.90
